INFORMACIÓN METAR y TAF
METAR FOR GCHI
ADDS - METARS form results

(1953 UTC 03 June 2020)
Data provider http://aviationweather.gov/metar/data/
 
METAR text: GCHI 031930Z AUTO 14005KT 9999 FEW029 SCT036 BKN045 22/19 Q1014
Conditions at: GCHI (HIERRO AIRPORT , ES) observed 1930 UTC 03 June 2020
Temperature: 22.0°C (72°F)
Dewpoint: 19.0°C (66°F) [RH = 83%]
Pressure (altimeter): 29.94 inches Hg (1014.0 mb)
Winds: from the SE (140 degrees) at 6 MPH (5 knots; 2.6 m/s)
Visibility: 6 or more miles (10+ km)
Ceiling: 4500 feet AGL
Clouds: few clouds at 2900 feet AGL
scattered clouds at 3600 feet AGL
broken clouds at 4500 feet AGL
Weather: no significant weather observed at this time

METAR text: GCHI 031900Z AUTO 18005KT 140V220 9999 SCT031 SCT037 BKN044 23/19 Q1014
Conditions at: GCHI (HIERRO AIRPORT , ES) observed 1900 UTC 03 June 2020
Temperature: 23.0°C (73°F)
Dewpoint: 19.0°C (66°F) [RH = 78%]
Pressure (altimeter): 29.94 inches Hg (1014.0 mb)
Winds: from the S (180 degrees) at 6 MPH (5 knots; 2.6 m/s)
Visibility: 6 or more miles (10+ km)
Ceiling: 4400 feet AGL
Clouds: scattered clouds at 3100 feet AGL
scattered clouds at 3700 feet AGL
broken clouds at 4400 feet AGL
Weather: no significant weather observed at this time

Forecast for: GCHI (HIERRO AIRPORT , ES)
Text: TAF GCHI 031400Z 0315/0415 10006KT 9999 SCT030 TX25/0414Z TN20/0406Z
Forecast period: 1500 UTC 03 June 2020 to 1500 UTC 04 June 2020
Forecast type: FROM: standard forecast or significant change
Winds: from the E (100 degrees) at 7 MPH (6 knots; 3.1 m/s)
Visibility: 6 or more miles 10+ km)
Ceiling: at least 12,000 feet AGL
Clouds: scattered clouds at 3000 feet AGL
Weather: no significant weather forecast for this period
Text: PROB30
Forecast period: 1000 to 1500 UTC 04 June 2020
Forecast type: TEMPORARY: The following changes expected for less than half the time period
Visibility: missing
Ceiling: unknown
Clouds: missing
Weather: RA  (moderate rain)

MAPA DE AEROPUERTO

INFORMACIÓN DE PISTA
Pista 16 Longitud 4101 ft Ancho 98 ft
Elevación 71 ft Umbral desplazado 0 ft Rumbo de pista 153
Pista 34 Longitud 4101 ft Ancho 98 ft
Elevación 103 ft Umbral desplazado 0 ft Rumbo de pista 333

FRECUANCIAS DEL AEROPUERTO
Tipo A/D Nombre CANARIAS A Frecuencia 126.1 MHZ
Tipo GND Nombre GND Frecuencia 121.6 MHZ
Tipo TWR Nombre TWR Frecuencia 118.1 MHZ

RADIO AYUDAS DEL AEROPUERTO
Tipo NDB Nombre Hierro Frecuencia 376 KHZ
Tipo DME Nombre Hierro Frecuencia 113200 KHZ